GCXOGCFV

Guest
Details From GCXO - Tenerife Norte - Los Rodeos
To GCFV - Fuerteventura
Flight Number -
Tags generated
Created
Modified
Stats Distance 140 nm / 259 km
Max Altitude 17,300 ft / 5,273 m
Waypoints 3
Social Downloads 2
Likes 0
Share VATSIM

Download

Looking for another format? Having issues loading an existing format? Contact us
Advertisement - Login to hide

Notes

Basic altitude profile: - Ascent Rate: 2500ft/min - Ascent Speed: 250kts - Cruise Altitude: 35000ft - Cruise Speed: 420kts - Descent Rate: 1500ft/min - Descent Speed: 250kts Options: - Use NATs: yes - Use PACOTS: yes - Use low airways: yes - Use high airways: no

Route

GCXO GDV GCFV

ID Type Via Altitude Latitude Longitude Leg Dist Tot Dist Heading (true) Name
O GCXO APT - 0 ft / 0 m 28.48266˚ -16.34154˚ - 0 nm - Tenerife Norte - Los Rodeos
GDV VOR - 17,300 ft / 5,273 m 28.07708˚ -15.42899˚ 54 nm 54 nm 117° / 117° GRAN CANARIA VOR-DME
O GCFV APT - 0 ft / 0 m 28.44788˚ -13.86489˚ 85 nm 139 nm 75° / 75° Fuerteventura

Altitude Profile

Advertisement - Login to hide

GCXO

Details ICAO GCXO (TFN)
Name Tenerife Norte - Los Rodeos
Region Canary Islands
Timezone Atlantic/Canary (UTC+0.0)
Stats Elevation 2,076 ft / 633 m (AMSL)
Location 28.482656° -16.341541°
Runways 1
Magnetic Variation 5.002° W

METAR

GCXO 151030Z 32011KT 9999 FEW007 SCT013 BKN021 15/13 Q1028 NOSIG

Decode

TAF

TAF AMD GCXO 150921Z 1509/1609 33013KT 9999 SCT020 TX18/1514Z TN12/1606Z PROB40 TEMPO 1509/1609 1000 DZ BCFG BKN007

Decode

Departure Runways

ID Width Length Bearing (true) Bearing (mag) Surface Threshold Offset Overrun Length
12 148 ft / 45 m 11,165 ft / 3,403 m 110.67° 115.67° Asphalt 0 ft / 0 m 197 ft / 60 m
30 148 ft / 45 m 11,165 ft / 3,403 m 290.69° 295.69° Asphalt 0 ft / 0 m 197 ft / 60 m

GCFV

Details ICAO GCFV (FUE)
Name Fuerteventura
Region Canary Islands
Timezone Atlantic/Canary (UTC+0.0)
Stats Elevation 85 ft / 26 m (AMSL)
Location 28.447882° -13.864892°
Runways 2
Magnetic Variation 4.098° W

METAR

GCFV 151030Z 01013KT 9999 FEW029 SCT045 20/14 Q1025

Decode

TAF

TAF AMD GCFV 150922Z 1509/1609 04010KT 9999 SCT025 TX22/1514Z TN17/1606Z BECMG 1516/1518 34008KT TEMPO 1509/1512 34006KT

Decode

Destination Runways

ID Width Length Bearing (true) Bearing (mag) Surface Threshold Offset Overrun Length
01L 148 ft / 45 m 5,433 ft / 1,656 m 1.67° 5.77° Asphalt 0 ft / 0 m 984 ft / 300 m
01R 148 ft / 45 m 7,905 ft / 2,409 m 1.66° 5.76° Asphalt 0 ft / 0 m 3,281 ft / 1,000 m
19L 148 ft / 45 m 7,905 ft / 2,409 m 181.66° 185.76° Asphalt 0 ft / 0 m 197 ft / 60 m
19R 148 ft / 45 m 5,433 ft / 1,656 m 181.67° 185.77° Asphalt 0 ft / 0 m 820 ft / 250 m

Approach Navaids

Runway Type Ident Frequency Range Bearing (true) Bearing (mag) Slope Elevation
01R Localiser IFV 109.50 MHz 18 nm / 33 km 1.66° 5.76° - 64 ft / 20 m (AMSL)
01R Glidescope IFV 109.50 MHz 10 nm / 19 km 1.66° 5.76° 3.00° 85 ft / 26 m (AMSL)
01R DME IFV 109.50 MHz 18 nm / 33 km - - - 85 ft / 26 m (AMSL)

Popular Alternatives